Time;durP1;ratioP1;P1;durP2;ratioP2;P2;SDS_P1;SDS_P2;PMS_P1;PMS_P2;Temp;Humidity;BMP_temperature;BMP_pressure;BME280_temperature;BME280_humidity;BME280_pressure;Samples;Min_cycle;Max_cycle;Signal;HPM_P1;HPM_P2
2022/11/20 00:07:31;;;;;;;5.38;3.85;;;-0.60;99.90;;;;;;20635038;28;20410;-39
2022/11/20 00:17:32;;;;;;;9.73;4.55;;;-0.50;99.90;;;;;;20622774;28;20061;-39
2022/11/20 00:27:33;;;;;;;7.97;3.88;;;-0.50;99.90;;;;;;20626735;28;20049;-39
2022/11/20 00:37:34;;;;;;;7.63;3.80;;;-0.50;99.90;;;;;;20623382;28;20045;-39
2022/11/20 00:47:35;;;;;;;7.25;3.95;;;-0.70;99.90;;;;;;20600905;28;20045;-40
2022/11/20 00:57:36;;;;;;;6.38;4.03;;;-0.80;99.90;;;;;;20621820;28;20046;-40
2022/11/20 01:07:37;;;;;;;4.65;2.83;;;-0.70;99.90;;;;;;20624480;28;20042;-39
2022/11/20 01:17:38;;;;;;;8.70;3.75;;;-0.60;99.90;;;;;;20651592;28;20050;-39
2022/11/20 01:27:39;;;;;;;10.50;4.38;;;-0.80;99.90;;;;;;20650633;28;20075;-39
2022/11/20 01:37:40;;;;;;;7.53;3.03;;;-1.10;99.90;;;;;;20644270;28;20042;-40
2022/11/20 01:47:44;;;;;;;7.78;3.15;;;-1.10;99.90;;;;;;20658690;28;20666;-40
2022/11/20 01:57:48;;;;;;;6.22;3.47;;;-1.10;99.90;;;;;;20655034;28;20330;-39
2022/11/20 02:07:50;;;;;;;10.15;4.28;;;-1.20;99.90;;;;;;20646094;28;20135;-39
2022/11/20 02:17:51;;;;;;;8.85;3.80;;;-1.20;99.90;;;;;;20663517;28;20054;-40
2022/11/20 02:27:52;;;;;;;5.68;3.35;;;-1.30;99.90;;;;;;20620617;28;20119;-40
2022/11/20 02:37:55;;;;;;;9.73;4.38;;;-1.20;99.90;;;;;;20643434;28;20127;-39
2022/11/20 02:47:56;;;;;;;6.60;3.53;;;-1.20;99.90;;;;;;20639769;28;20062;-40
2022/11/20 02:57:57;;;;;;;7.97;4.22;;;-1.40;99.90;;;;;;20655279;28;20072;-40
2022/11/20 03:07:58;;;;;;;8.57;4.38;;;-1.40;99.90;;;;;;20643880;28;20049;-41
2022/11/20 03:17:59;;;;;;;8.48;4.20;;;-1.50;99.90;;;;;;20640480;28;20647;-40
2022/11/20 03:28:01;;;;;;;8.35;3.72;;;-1.60;99.90;;;;;;20640463;28;20471;-39
2022/11/20 03:38:02;;;;;;;9.63;4.88;;;-1.60;99.90;;;;;;21061784;22;20051;-43
2022/11/20 03:48:03;;;;;;;8.18;4.50;;;-1.60;99.90;;;;;;20683585;28;20455;-42
2022/11/20 03:58:04;;;;;;;7.63;3.65;;;-1.70;99.90;;;;;;20689565;28;20438;-42
2022/11/20 04:08:05;;;;;;;6.95;3.60;;;-1.60;99.90;;;;;;20670115;28;20068;-42
2022/11/20 04:18:06;;;;;;;9.32;4.18;;;-1.70;99.90;;;;;;20688045;28;20058;-42
2022/11/20 04:28:07;;;;;;;7.47;3.90;;;-1.70;99.90;;;;;;20699796;28;20045;-42
2022/11/20 04:38:08;;;;;;;7.25;4.80;;;-1.80;99.90;;;;;;20619953;28;20046;-42
2022/11/20 04:48:09;;;;;;;8.20;4.00;;;-1.80;99.90;;;;;;20606932;28;20042;-42
2022/11/20 04:58:11;;;;;;;6.47;3.95;;;-1.60;99.90;;;;;;20589752;28;20055;-42
2022/11/20 05:08:12;;;;;;;10.10;4.07;;;-1.70;99.90;;;;;;20610276;28;20098;-43
2022/11/20 05:18:13;;;;;;;8.00;4.38;;;-1.80;99.90;;;;;;20600201;28;20353;-43
2022/11/20 05:28:14;;;;;;;9.05;4.35;;;-1.80;99.90;;;;;;20580874;28;21793;-42
2022/11/20 05:38:15;;;;;;;7.20;4.75;;;-1.90;99.90;;;;;;20587092;28;20047;-42
2022/11/20 05:48:16;;;;;;;7.95;3.85;;;-2.00;99.90;;;;;;20582062;28;20536;-43
2022/11/20 05:58:17;;;;;;;9.65;4.55;;;-2.00;99.90;;;;;;20612411;28;20508;-42
2022/11/20 06:08:18;;;;;;;8.13;3.10;;;-2.10;99.90;;;;;;20597945;28;20042;-43
2022/11/20 06:18:19;;;;;;;7.43;4.80;;;-2.10;99.90;;;;;;20583631;28;20054;-42
2022/11/20 06:28:21;;;;;;;7.18;4.03;;;-2.10;99.90;;;;;;20596274;28;20572;-43
2022/11/20 06:38:23;;;;;;;14.00;6.20;;;-2.00;99.90;;;;;;20606319;28;20046;-43
2022/11/20 06:48:27;;;;;;;9.93;4.38;;;-1.70;99.90;;;;;;20613982;28;20559;-43
2022/11/20 06:58:30;;;;;;;7.25;3.80;;;-1.80;99.90;;;;;;20601554;28;20167;-43
2022/11/20 07:08:32;;;;;;;8.35;4.88;;;-1.70;99.90;;;;;;20622520;28;20041;-43
2022/11/20 07:18:33;;;;;;;10.38;5.18;;;-1.60;99.90;;;;;;20597957;28;20232;-42
2022/11/20 07:28:35;;;;;;;13.38;5.53;;;-1.60;99.90;;;;;;20604522;28;20042;-43
2022/11/20 07:38:37;;;;;;;6.53;3.40;;;-1.50;99.90;;;;;;20610699;28;20105;-42
2022/11/20 07:48:38;;;;;;;8.85;4.85;;;-1.50;99.90;;;;;;20597352;28;20080;-43
2022/11/20 07:58:39;;;;;;;11.63;4.90;;;-1.30;99.90;;;;;;20608986;28;20051;-43
2022/11/20 08:08:40;;;;;;;11.25;5.95;;;-1.20;99.90;;;;;;20608114;28;20094;-42
2022/11/20 08:18:41;;;;;;;10.00;5.80;;;-1.00;99.90;;;;;;20593543;28;20132;-43
2022/11/20 08:28:42;;;;;;;12.13;5.32;;;-1.00;99.90;;;;;;20550650;28;20057;-42
2022/11/20 08:38:51;;;;;;;10.15;6.68;;;-1.00;99.90;;;;;;20655778;28;20116;-42
2022/11/20 08:48:52;;;;;;;12.70;6.63;;;-0.90;99.90;;;;;;20656108;28;20092;-42
2022/11/20 08:58:53;;;;;;;12.95;5.78;;;-0.70;99.90;;;;;;20661900;28;22070;-42
2022/11/20 09:08:55;;;;;;;13.23;6.60;;;-0.60;99.90;;;;;;20645011;28;20774;-42
2022/11/20 09:18:56;;;;;;;12.18;5.95;;;-0.40;99.90;;;;;;20651222;28;20077;-43
2022/11/20 09:28:57;;;;;;;12.35;7.22;;;-0.20;99.90;;;;;;20615318;28;20108;-43
2022/11/20 09:38:58;;;;;;;10.52;5.38;;;-0.10;99.90;;;;;;20618671;28;20058;-43
2022/11/20 09:49:39;;;;;;;25.17;7.97;;;0.10;99.90;;;;;;20620511;28;20271;-42
2022/11/20 09:59:43;;;;;;;8.90;5.32;;;0.30;99.90;;;;;;20609325;28;20073;-43
2022/11/20 10:09:53;;;;;;;9.85;6.55;;;0.60;99.90;;;;;;20627923;28;20496;-43
2022/11/20 10:20:12;;;;;;;14.48;7.25;;;0.80;99.90;;;;;;20642088;28;20497;-43
2022/11/20 10:30:19;;;;;;;11.77;7.05;;;1.00;99.90;;;;;;20637445;28;20066;-43
2022/11/20 10:40:38;;;;;;;16.17;7.97;;;1.10;99.90;;;;;;20625292;28;20119;-43
2022/11/20 10:50:54;;;;;;;16.80;7.25;;;1.20;99.90;;;;;;20581267;28;21855;-41
2022/11/20 11:01:06;;;;;;;13.67;7.90;;;1.40;99.90;;;;;;20615156;28;20125;-43
2022/11/20 11:11:23;;;;;;;13.95;6.93;;;1.50;99.90;;;;;;20619450;28;20069;-42
2022/11/20 11:21:25;;;;;;;14.55;8.32;;;1.60;99.90;;;;;;20623445;28;20073;-44
2022/11/20 11:31:31;;;;;;;17.58;10.32;;;1.70;99.90;;;;;;20621659;28;20117;-43
2022/11/20 11:41:36;;;;;;;20.33;10.83;;;1.80;99.90;;;;;;20657165;28;20627;-43
2022/11/20 11:52:02;;;;;;;18.40;9.60;;;1.90;99.90;;;;;;20642823;28;20920;-43
2022/11/20 12:02:22;;;;;;;24.15;12.63;;;1.90;99.90;;;;;;20641916;28;20053;-41
2022/11/20 12:12:32;;;;;;;28.48;13.45;;;2.00;99.90;;;;;;20638146;28;20497;-41
2022/11/20 12:23:01;;;;;;;25.77;12.70;;;2.10;99.90;;;;;;20627375;28;20713;-43
2022/11/20 12:33:28;;;;;;;29.38;13.02;;;2.20;99.90;;;;;;20628203;28;20298;-42
2022/11/20 12:54:17;;;;;;;25.50;12.15;;;2.20;99.90;;;;;;20611465;28;20905;-41
2022/11/20 13:04:43;;;;;;;20.50;11.35;;;2.30;99.90;;;;;;20629493;28;20044;-42
2022/11/20 13:15:04;;;;;;;20.42;11.48;;;2.30;99.90;;;;;;20625685;28;21764;-43
2022/11/20 13:25:09;;;;;;;23.15;11.90;;;2.40;99.90;;;;;;20605971;28;20523;-43
2022/11/20 13:35:10;;;;;;;24.90;12.35;;;2.40;99.90;;;;;;20630131;28;20545;-41
2022/11/20 13:45:30;;;;;;;24.95;12.82;;;2.50;99.90;;;;;;20613269;28;20839;-41
2022/11/20 13:55:37;;;;;;;19.77;11.75;;;2.50;99.90;;;;;;20618161;28;20085;-42
2022/11/20 14:05:51;;;;;;;21.17;13.32;;;2.50;99.90;;;;;;20608360;28;20953;-41
2022/11/20 14:15:56;;;;;;;26.50;13.80;;;2.60;99.90;;;;;;20619012;28;20078;-41
2022/11/20 14:25:58;;;;;;;38.28;17.98;;;2.50;99.90;;;;;;20585347;28;20122;-42
2022/11/20 14:35:59;;;;;;;28.45;15.38;;;2.50;99.90;;;;;;20618748;28;20356;-42
2022/11/20 14:46:03;;;;;;;30.75;17.52;;;2.50;99.90;;;;;;20613416;28;20152;-41
2022/11/20 14:56:04;;;;;;;30.45;15.95;;;2.50;99.90;;;;;;20615514;28;20148;-42
2022/11/20 15:06:07;;;;;;;28.55;16.33;;;2.60;99.90;;;;;;20599424;28;20121;-43
2022/11/20 15:16:23;;;;;;;29.15;15.00;;;2.60;99.90;;;;;;20614949;28;20106;-42
2022/11/20 15:26:27;;;;;;;20.63;13.13;;;2.60;99.90;;;;;;20617858;28;20062;-43
2022/11/20 15:36:27;;;;;;;20.38;12.00;;;2.80;99.90;;;;;;20613685;28;20113;-44
2022/11/20 15:46:37;;;;;;;21.23;13.60;;;2.80;99.90;;;;;;20611511;28;20026;-42
2022/11/20 15:56:38;;;;;;;17.52;12.43;;;2.80;99.90;;;;;;20609895;28;22066;-43
2022/11/20 16:06:40;;;;;;;22.70;12.60;;;2.80;99.90;;;;;;20604441;28;20138;-42
2022/11/20 16:16:42;;;;;;;16.45;9.82;;;2.80;99.90;;;;;;20605946;28;20082;-42
2022/11/20 16:26:43;;;;;;;19.42;9.75;;;2.90;99.90;;;;;;20610401;28;20124;-42
2022/11/20 16:36:44;;;;;;;21.83;11.63;;;2.90;99.90;;;;;;20630687;28;20045;-42
2022/11/20 16:46:45;;;;;;;18.58;10.95;;;2.90;99.90;;;;;;20617786;28;20035;-41
2022/11/20 16:56:47;;;;;;;17.92;10.02;;;3.00;99.90;;;;;;20622105;28;20076;-42
2022/11/20 17:06:48;;;;;;;17.75;10.10;;;3.00;99.90;;;;;;20621689;28;20073;-43
2022/11/20 17:16:49;;;;;;;17.55;10.82;;;3.10;99.90;;;;;;20610536;28;20043;-41
2022/11/20 17:26:50;;;;;;;15.73;10.73;;;3.10;99.90;;;;;;20623360;28;20039;-41
2022/11/20 17:36:51;;;;;;;19.00;9.77;;;3.10;99.90;;;;;;20635095;28;20049;-41
2022/11/20 17:46:52;;;;;;;19.48;10.80;;;3.20;99.90;;;;;;20630447;28;20170;-41
2022/11/20 18:07:12;;;;;;;19.60;11.43;;;3.20;99.90;;;;;;20626541;28;20617;-41
2022/11/20 18:17:14;;;;;;;16.48;9.52;;;3.10;99.90;;;;;;20627591;28;20042;-40
2022/11/20 18:27:18;;;;;;;18.45;11.13;;;3.10;99.90;;;;;;20630499;28;20071;-40
2022/11/20 18:37:19;;;;;;;14.18;8.52;;;3.10;99.90;;;;;;20627873;28;20265;-41
2022/11/20 18:47:23;;;;;;;17.60;9.55;;;3.20;99.90;;;;;;20628413;28;20038;-40
2022/11/20 18:57:26;;;;;;;15.68;9.77;;;3.20;99.90;;;;;;20602953;28;20109;-42
2022/11/20 19:07:27;;;;;;;20.58;11.25;;;3.20;99.90;;;;;;20616828;28;20069;-40
2022/11/20 19:17:28;;;;;;;24.17;13.75;;;3.20;99.90;;;;;;20614510;28;20084;-41
2022/11/20 19:27:29;;;;;;;22.95;12.02;;;3.20;99.90;;;;;;20618763;28;20038;-40
2022/11/20 19:37:34;;;;;;;16.63;9.93;;;3.30;99.90;;;;;;20611818;28;20074;-41
2022/11/20 19:47:35;;;;;;;23.95;11.30;;;3.20;99.90;;;;;;20594756;28;20324;-41
2022/11/20 19:57:36;;;;;;;22.13;13.25;;;3.20;99.90;;;;;;20605765;28;20113;-40
2022/11/20 20:07:40;;;;;;;19.92;12.45;;;3.20;99.90;;;;;;20614358;28;20042;-41
2022/11/20 20:17:41;;;;;;;16.13;11.60;;;3.20;99.90;;;;;;20626215;28;20049;-41
2022/11/20 20:27:42;;;;;;;18.13;11.60;;;3.20;99.90;;;;;;20628913;28;20053;-41
2022/11/20 20:37:43;;;;;;;20.48;11.82;;;3.30;99.90;;;;;;20625435;28;20038;-41
2022/11/20 20:47:44;;;;;;;28.27;14.90;;;3.30;99.90;;;;;;20609852;28;20042;-41
2022/11/20 20:57:45;;;;;;;21.90;10.55;;;3.30;99.90;;;;;;20602561;28;20074;-41
2022/11/20 21:18:06;;;;;;;35.58;17.02;;;3.20;99.90;;;;;;20623451;28;20093;-41
2022/11/20 21:28:08;;;;;;;17.17;11.15;;;3.20;99.90;;;;;;20650920;28;20085;-41
2022/11/20 21:38:09;;;;;;;24.17;11.82;;;3.10;99.90;;;;;;20656749;28;20050;-40
2022/11/20 21:48:10;;;;;;;20.38;11.27;;;3.20;99.90;;;;;;20654180;28;20041;-40
2022/11/20 21:58:11;;;;;;;21.50;12.02;;;3.20;99.90;;;;;;20641131;28;20060;-40
2022/11/20 22:08:12;;;;;;;20.13;10.88;;;3.30;99.90;;;;;;20636671;28;20049;-41
2022/11/20 22:18:13;;;;;;;14.50;9.55;;;3.30;99.90;;;;;;20635813;28;20042;-40
2022/11/20 22:28:13;;;;;;;20.13;12.35;;;3.20;99.90;;;;;;20630140;28;20045;-40
2022/11/20 22:38:16;;;;;;;21.77;11.68;;;3.20;99.90;;;;;;20632509;28;20063;-41
2022/11/20 22:48:17;;;;;;;17.40;11.13;;;3.20;99.90;;;;;;20634022;28;20037;-40
2022/11/20 22:58:18;;;;;;;20.60;11.57;;;3.30;99.90;;;;;;20636582;28;20053;-41
2022/11/20 23:08:19;;;;;;;23.20;12.82;;;3.20;99.90;;;;;;20632502;28;20049;-41
2022/11/20 23:18:20;;;;;;;24.80;13.90;;;3.20;99.90;;;;;;20623596;28;20764;-41
2022/11/20 23:28:21;;;;;;;22.13;14.13;;;3.20;99.90;;;;;;20618550;28;20202;-41
2022/11/20 23:38:22;;;;;;;27.13;14.38;;;3.20;99.90;;;;;;20624614;28;20092;-40
2022/11/20 23:48:28;;;;;;;20.80;12.55;;;3.10;99.90;;;;;;20619052;28;20081;-40
2022/11/20 23:58:32;;;;;;;20.27;12.53;;;3.10;99.90;;;;;;20631889;28;20050;-41
